sensor_id;sensor_type;location;lat;lon;timestamp;P1;durP1;ratioP1;P2;durP2;ratioP2
33138;SDS011;19501;50.948;5.316;2024-03-02T00:00:19;2.83;;;1.38;;
33138;SDS011;19501;50.948;5.316;2024-03-02T00:02:46;1.80;;;1.23;;
33138;SDS011;19501;50.948;5.316;2024-03-02T00:05:14;2.15;;;1.00;;
33138;SDS011;19501;50.948;5.316;2024-03-02T00:07:45;3.58;;;1.45;;
33138;SDS011;19501;50.948;5.316;2024-03-02T00:10:19;2.03;;;1.42;;
33138;SDS011;19501;50.948;5.316;2024-03-02T00:12:49;1.73;;;1.27;;
33138;SDS011;19501;50.948;5.316;2024-03-02T00:18:02;2.28;;;1.10;;
33138;SDS011;19501;50.948;5.316;2024-03-02T00:20:29;2.63;;;1.80;;
33138;SDS011;19501;50.948;5.316;2024-03-02T00:23:01;5.32;;;1.40;;
33138;SDS011;19501;50.948;5.316;2024-03-02T00:33:22;2.88;;;1.40;;
33138;SDS011;19501;50.948;5.316;2024-03-02T00:35:53;1.70;;;1.30;;
33138;SDS011;19501;50.948;5.316;2024-03-02T00:38:19;2.00;;;1.40;;
33138;SDS011;19501;50.948;5.316;2024-03-02T00:40:45;2.03;;;1.20;;
33138;SDS011;19501;50.948;5.316;2024-03-02T00:43:31;3.22;;;1.30;;
33138;SDS011;19501;50.948;5.316;2024-03-02T00:46:12;0.50;;;0.50;;
33138;SDS011;19501;50.948;5.316;2024-03-02T00:48:44;0.40;;;0.40;;
33138;SDS011;19501;50.948;5.316;2024-03-02T00:51:17;0.50;;;0.50;;
33138;SDS011;19501;50.948;5.316;2024-03-02T00:53:43;0.50;;;0.50;;
33138;SDS011;19501;50.948;5.316;2024-03-02T00:56:09;0.50;;;0.50;;
33138;SDS011;19501;50.948;5.316;2024-03-02T00:58:36;0.50;;;0.50;;
33138;SDS011;19501;50.948;5.316;2024-03-02T01:01:02;0.50;;;0.50;;
33138;SDS011;19501;50.948;5.316;2024-03-02T01:03:32;0.50;;;0.50;;
33138;SDS011;19501;50.948;5.316;2024-03-02T01:05:58;0.52;;;0.52;;
33138;SDS011;19501;50.948;5.316;2024-03-02T01:08:24;0.57;;;0.57;;
33138;SDS011;19501;50.948;5.316;2024-03-02T01:10:49;0.60;;;0.60;;
33138;SDS011;19501;50.948;5.316;2024-03-02T01:13:15;0.50;;;0.50;;
33138;SDS011;19501;50.948;5.316;2024-03-02T01:15:41;0.50;;;0.50;;
33138;SDS011;19501;50.948;5.316;2024-03-02T01:18:06;0.50;;;0.50;;
33138;SDS011;19501;50.948;5.316;2024-03-02T01:20:32;0.60;;;0.60;;
33138;SDS011;19501;50.948;5.316;2024-03-02T01:23:01;0.60;;;0.60;;
33138;SDS011;19501;50.948;5.316;2024-03-02T01:25:26;0.50;;;0.50;;
33138;SDS011;19501;50.948;5.316;2024-03-02T01:27:52;1.00;;;0.98;;
33138;SDS011;19501;50.948;5.316;2024-03-02T01:30:18;0.50;;;0.50;;
33138;SDS011;19501;50.948;5.316;2024-03-02T01:32:43;0.50;;;0.50;;
33138;SDS011;19501;50.948;5.316;2024-03-02T01:35:09;0.50;;;0.50;;
33138;SDS011;19501;50.948;5.316;2024-03-02T01:37:35;0.50;;;0.50;;
33138;SDS011;19501;50.948;5.316;2024-03-02T01:40:00;0.50;;;0.50;;
33138;SDS011;19501;50.948;5.316;2024-03-02T01:42:33;0.60;;;0.60;;
33138;SDS011;19501;50.948;5.316;2024-03-02T01:44:59;0.50;;;0.50;;
33138;SDS011;19501;50.948;5.316;2024-03-02T01:47:25;0.60;;;0.60;;
33138;SDS011;19501;50.948;5.316;2024-03-02T01:49:50;0.50;;;0.50;;
33138;SDS011;19501;50.948;5.316;2024-03-02T01:52:16;0.50;;;0.50;;
33138;SDS011;19501;50.948;5.316;2024-03-02T01:54:44;0.50;;;0.50;;
33138;SDS011;19501;50.948;5.316;2024-03-02T01:57:09;0.60;;;0.60;;
33138;SDS011;19501;50.948;5.316;2024-03-02T01:59:35;0.50;;;0.50;;
33138;SDS011;19501;50.948;5.316;2024-03-02T02:02:01;0.50;;;0.50;;
33138;SDS011;19501;50.948;5.316;2024-03-02T02:04:26;0.50;;;0.50;;
33138;SDS011;19501;50.948;5.316;2024-03-02T02:06:53;0.45;;;0.45;;
33138;SDS011;19501;50.948;5.316;2024-03-02T02:09:19;0.50;;;0.50;;
33138;SDS011;19501;50.948;5.316;2024-03-02T02:11:44;0.43;;;0.43;;
33138;SDS011;19501;50.948;5.316;2024-03-02T02:14:10;0.50;;;0.50;;
33138;SDS011;19501;50.948;5.316;2024-03-02T02:16:36;0.50;;;0.50;;
33138;SDS011;19501;50.948;5.316;2024-03-02T02:19:02;0.50;;;0.50;;
33138;SDS011;19501;50.948;5.316;2024-03-02T02:21:28;0.50;;;0.50;;
33138;SDS011;19501;50.948;5.316;2024-03-02T02:23:53;0.50;;;0.50;;
33138;SDS011;19501;50.948;5.316;2024-03-02T02:26:19;0.50;;;0.50;;
33138;SDS011;19501;50.948;5.316;2024-03-02T02:28:44;0.50;;;0.50;;
33138;SDS011;19501;50.948;5.316;2024-03-02T02:31:13;0.50;;;0.50;;
33138;SDS011;19501;50.948;5.316;2024-03-02T02:33:42;0.50;;;0.50;;
33138;SDS011;19501;50.948;5.316;2024-03-02T02:36:08;0.55;;;0.55;;
33138;SDS011;19501;50.948;5.316;2024-03-02T02:38:44;0.50;;;0.50;;
33138;SDS011;19501;50.948;5.316;2024-03-02T02:41:13;0.50;;;0.50;;
33138;SDS011;19501;50.948;5.316;2024-03-02T02:43:38;0.50;;;0.50;;
33138;SDS011;19501;50.948;5.316;2024-03-02T02:46:07;0.50;;;0.50;;
33138;SDS011;19501;50.948;5.316;2024-03-02T02:48:32;0.50;;;0.50;;
33138;SDS011;19501;50.948;5.316;2024-03-02T02:50:58;0.50;;;0.50;;
33138;SDS011;19501;50.948;5.316;2024-03-02T02:53:23;0.50;;;0.50;;
33138;SDS011;19501;50.948;5.316;2024-03-02T02:55:49;1.08;;;1.08;;
33138;SDS011;19501;50.948;5.316;2024-03-02T02:58:15;0.50;;;0.50;;
33138;SDS011;19501;50.948;5.316;2024-03-02T03:00:40;0.60;;;0.60;;
33138;SDS011;19501;50.948;5.316;2024-03-02T03:03:08;0.50;;;0.50;;
33138;SDS011;19501;50.948;5.316;2024-03-02T03:05:34;0.50;;;0.50;;
33138;SDS011;19501;50.948;5.316;2024-03-02T03:07:59;0.50;;;0.50;;
33138;SDS011;19501;50.948;5.316;2024-03-02T03:10:25;0.55;;;0.55;;
33138;SDS011;19501;50.948;5.316;2024-03-02T03:12:52;0.50;;;0.50;;
33138;SDS011;19501;50.948;5.316;2024-03-02T03:15:18;0.50;;;0.50;;
33138;SDS011;19501;50.948;5.316;2024-03-02T03:17:43;0.50;;;0.50;;
33138;SDS011;19501;50.948;5.316;2024-03-02T03:20:11;0.50;;;0.50;;
33138;SDS011;19501;50.948;5.316;2024-03-02T03:22:37;0.50;;;0.50;;
33138;SDS011;19501;50.948;5.316;2024-03-02T03:25:03;0.50;;;0.50;;
33138;SDS011;19501;50.948;5.316;2024-03-02T03:27:33;0.50;;;0.50;;
33138;SDS011;19501;50.948;5.316;2024-03-02T03:30:01;0.50;;;0.50;;
33138;SDS011;19501;50.948;5.316;2024-03-02T03:32:27;0.50;;;0.50;;
33138;SDS011;19501;50.948;5.316;2024-03-02T03:34:53;0.50;;;0.50;;
33138;SDS011;19501;50.948;5.316;2024-03-02T03:37:19;0.50;;;0.50;;
33138;SDS011;19501;50.948;5.316;2024-03-02T03:39:44;0.50;;;0.50;;
33138;SDS011;19501;50.948;5.316;2024-03-02T03:42:10;0.50;;;0.50;;
33138;SDS011;19501;50.948;5.316;2024-03-02T03:44:36;0.50;;;0.50;;
33138;SDS011;19501;50.948;5.316;2024-03-02T03:47:02;0.50;;;0.50;;
33138;SDS011;19501;50.948;5.316;2024-03-02T03:49:27;0.50;;;0.50;;
33138;SDS011;19501;50.948;5.316;2024-03-02T03:51:53;0.50;;;0.50;;
33138;SDS011;19501;50.948;5.316;2024-03-02T03:54:19;0.50;;;0.50;;
33138;SDS011;19501;50.948;5.316;2024-03-02T03:56:44;0.50;;;0.50;;
33138;SDS011;19501;50.948;5.316;2024-03-02T03:59:10;0.60;;;0.60;;
33138;SDS011;19501;50.948;5.316;2024-03-02T04:01:35;0.50;;;0.50;;
33138;SDS011;19501;50.948;5.316;2024-03-02T04:04:02;0.60;;;0.60;;
33138;SDS011;19501;50.948;5.316;2024-03-02T04:06:28;0.55;;;0.55;;
33138;SDS011;19501;50.948;5.316;2024-03-02T04:08:54;0.50;;;0.50;;
33138;SDS011;19501;50.948;5.316;2024-03-02T04:11:20;0.50;;;0.50;;
33138;SDS011;19501;50.948;5.316;2024-03-02T04:13:48;0.52;;;0.52;;
33138;SDS011;19501;50.948;5.316;2024-03-02T04:16:14;0.60;;;0.60;;
33138;SDS011;19501;50.948;5.316;2024-03-02T04:18:39;2.35;;;2.15;;
33138;SDS011;19501;50.948;5.316;2024-03-02T04:21:05;0.40;;;0.40;;
33138;SDS011;19501;50.948;5.316;2024-03-02T04:23:33;0.50;;;0.50;;
33138;SDS011;19501;50.948;5.316;2024-03-02T04:25:58;0.50;;;0.50;;
33138;SDS011;19501;50.948;5.316;2024-03-02T04:28:24;0.70;;;0.70;;
33138;SDS011;19501;50.948;5.316;2024-03-02T04:30:50;0.60;;;0.60;;
33138;SDS011;19501;50.948;5.316;2024-03-02T04:33:15;0.50;;;0.50;;
33138;SDS011;19501;50.948;5.316;2024-03-02T04:35:41;0.50;;;0.50;;
33138;SDS011;19501;50.948;5.316;2024-03-02T04:38:07;0.50;;;0.50;;
33138;SDS011;19501;50.948;5.316;2024-03-02T04:40:32;0.50;;;0.50;;
33138;SDS011;19501;50.948;5.316;2024-03-02T04:43:00;0.50;;;0.50;;
33138;SDS011;19501;50.948;5.316;2024-03-02T04:45:26;0.50;;;0.50;;
33138;SDS011;19501;50.948;5.316;2024-03-02T04:47:51;0.60;;;0.60;;
33138;SDS011;19501;50.948;5.316;2024-03-02T04:50:17;0.60;;;0.60;;
33138;SDS011;19501;50.948;5.316;2024-03-02T04:52:43;0.60;;;0.60;;
33138;SDS011;19501;50.948;5.316;2024-03-02T04:55:09;0.50;;;0.50;;
33138;SDS011;19501;50.948;5.316;2024-03-02T04:57:41;0.60;;;0.60;;
33138;SDS011;19501;50.948;5.316;2024-03-02T05:00:07;0.60;;;0.60;;
33138;SDS011;19501;50.948;5.316;2024-03-02T05:02:34;2.80;;;1.30;;
33138;SDS011;19501;50.948;5.316;2024-03-02T05:05:02;3.63;;;1.17;;
33138;SDS011;19501;50.948;5.316;2024-03-02T05:07:28;3.65;;;1.23;;
33138;SDS011;19501;50.948;5.316;2024-03-02T05:09:53;2.45;;;1.30;;
33138;SDS011;19501;50.948;5.316;2024-03-02T05:12:19;2.10;;;1.10;;
33138;SDS011;19501;50.948;5.316;2024-03-02T05:15:03;6.13;;;1.13;;
33138;SDS011;19501;50.948;5.316;2024-03-02T05:17:29;3.33;;;1.23;;
33138;SDS011;19501;50.948;5.316;2024-03-02T05:19:55;2.53;;;1.17;;
33138;SDS011;19501;50.948;5.316;2024-03-02T05:22:20;1.55;;;1.00;;
33138;SDS011;19501;50.948;5.316;2024-03-02T05:24:46;2.70;;;1.00;;
33138;SDS011;19501;50.948;5.316;2024-03-02T05:27:12;1.67;;;1.13;;
33138;SDS011;19501;50.948;5.316;2024-03-02T05:29:37;3.50;;;1.30;;
33138;SDS011;19501;50.948;5.316;2024-03-02T05:32:03;2.83;;;1.30;;
33138;SDS011;19501;50.948;5.316;2024-03-02T05:34:28;6.00;;;1.50;;
33138;SDS011;19501;50.948;5.316;2024-03-02T05:36:58;4.72;;;1.25;;
33138;SDS011;19501;50.948;5.316;2024-03-02T05:39:23;4.95;;;1.30;;
33138;SDS011;19501;50.948;5.316;2024-03-02T05:41:49;1.92;;;1.35;;
33138;SDS011;19501;50.948;5.316;2024-03-02T05:44:14;3.25;;;1.23;;
33138;SDS011;19501;50.948;5.316;2024-03-02T05:46:40;3.25;;;1.40;;
33138;SDS011;19501;50.948;5.316;2024-03-02T05:49:07;2.22;;;1.23;;
33138;SDS011;19501;50.948;5.316;2024-03-02T05:51:33;7.43;;;1.25;;
33138;SDS011;19501;50.948;5.316;2024-03-02T05:53:58;1.60;;;1.13;;
33138;SDS011;19501;50.948;5.316;2024-03-02T05:56:24;5.60;;;1.35;;
33138;SDS011;19501;50.948;5.316;2024-03-02T05:58:52;8.55;;;1.52;;
33138;SDS011;19501;50.948;5.316;2024-03-02T06:01:37;3.05;;;1.40;;
33138;SDS011;19501;50.948;5.316;2024-03-02T06:04:11;2.75;;;1.20;;
33138;SDS011;19501;50.948;5.316;2024-03-02T06:06:37;5.45;;;1.40;;
33138;SDS011;19501;50.948;5.316;2024-03-02T06:09:03;3.58;;;1.52;;
33138;SDS011;19501;50.948;5.316;2024-03-02T06:11:35;3.53;;;1.50;;
33138;SDS011;19501;50.948;5.316;2024-03-02T06:14:05;10.25;;;1.80;;
33138;SDS011;19501;50.948;5.316;2024-03-02T06:16:32;5.43;;;1.40;;
33138;SDS011;19501;50.948;5.316;2024-03-02T06:18:58;2.40;;;1.58;;
33138;SDS011;19501;50.948;5.316;2024-03-02T06:21:24;7.93;;;1.50;;
33138;SDS011;19501;50.948;5.316;2024-03-02T06:23:50;2.45;;;1.65;;
33138;SDS011;19501;50.948;5.316;2024-03-02T06:26:16;3.75;;;1.73;;
33138;SDS011;19501;50.948;5.316;2024-03-02T06:28:44;3.30;;;1.40;;
33138;SDS011;19501;50.948;5.316;2024-03-02T06:31:10;4.53;;;2.03;;
33138;SDS011;19501;50.948;5.316;2024-03-02T06:33:36;4.18;;;1.60;;
33138;SDS011;19501;50.948;5.316;2024-03-02T06:36:03;3.90;;;1.58;;
33138;SDS011;19501;50.948;5.316;2024-03-02T06:38:29;4.15;;;1.75;;
33138;SDS011;19501;50.948;5.316;2024-03-02T06:40:57;4.75;;;1.80;;
33138;SDS011;19501;50.948;5.316;2024-03-02T06:43:22;12.15;;;1.88;;
33138;SDS011;19501;50.948;5.316;2024-03-02T06:45:49;6.97;;;2.45;;
33138;SDS011;19501;50.948;5.316;2024-03-02T06:48:15;7.55;;;2.13;;
33138;SDS011;19501;50.948;5.316;2024-03-02T06:50:45;4.25;;;1.50;;
33138;SDS011;19501;50.948;5.316;2024-03-02T06:53:13;6.75;;;1.95;;
33138;SDS011;19501;50.948;5.316;2024-03-02T06:55:42;10.38;;;2.00;;
33138;SDS011;19501;50.948;5.316;2024-03-02T06:58:09;2.92;;;1.52;;
33138;SDS011;19501;50.948;5.316;2024-03-02T07:00:35;4.35;;;1.85;;
33138;SDS011;19501;50.948;5.316;2024-03-02T07:03:01;4.75;;;1.73;;
33138;SDS011;19501;50.948;5.316;2024-03-02T07:05:27;2.78;;;1.60;;
33138;SDS011;19501;50.948;5.316;2024-03-02T07:07:53;6.25;;;1.67;;
33138;SDS011;19501;50.948;5.316;2024-03-02T07:10:18;10.30;;;1.67;;
33138;SDS011;19501;50.948;5.316;2024-03-02T07:12:44;7.18;;;1.55;;
33138;SDS011;19501;50.948;5.316;2024-03-02T07:15:09;9.18;;;2.20;;
33138;SDS011;19501;50.948;5.316;2024-03-02T07:17:53;6.72;;;1.90;;
33138;SDS011;19501;50.948;5.316;2024-03-02T07:20:19;6.00;;;1.88;;
33138;SDS011;19501;50.948;5.316;2024-03-02T07:22:45;6.10;;;1.70;;
33138;SDS011;19501;50.948;5.316;2024-03-02T07:25:10;3.63;;;1.38;;
33138;SDS011;19501;50.948;5.316;2024-03-02T07:27:36;7.20;;;1.80;;
33138;SDS011;19501;50.948;5.316;2024-03-02T07:30:02;4.57;;;1.75;;
33138;SDS011;19501;50.948;5.316;2024-03-02T07:32:28;7.55;;;2.00;;
33138;SDS011;19501;50.948;5.316;2024-03-02T07:34:54;7.60;;;2.10;;
33138;SDS011;19501;50.948;5.316;2024-03-02T07:37:21;6.95;;;2.00;;
33138;SDS011;19501;50.948;5.316;2024-03-02T07:39:47;9.43;;;1.85;;
33138;SDS011;19501;50.948;5.316;2024-03-02T07:42:13;8.43;;;1.80;;
33138;SDS011;19501;50.948;5.316;2024-03-02T07:44:38;6.10;;;2.13;;
33138;SDS011;19501;50.948;5.316;2024-03-02T07:47:04;14.30;;;2.42;;
33138;SDS011;19501;50.948;5.316;2024-03-02T07:49:30;5.88;;;2.00;;
33138;SDS011;19501;50.948;5.316;2024-03-02T07:51:55;15.90;;;4.32;;
33138;SDS011;19501;50.948;5.316;2024-03-02T07:54:21;14.43;;;4.28;;
33138;SDS011;19501;50.948;5.316;2024-03-02T07:56:47;7.75;;;2.10;;
33138;SDS011;19501;50.948;5.316;2024-03-02T07:59:15;7.43;;;2.20;;
33138;SDS011;19501;50.948;5.316;2024-03-02T08:01:41;7.68;;;2.03;;
33138;SDS011;19501;50.948;5.316;2024-03-02T08:04:06;5.53;;;1.80;;
33138;SDS011;19501;50.948;5.316;2024-03-02T08:06:32;8.60;;;2.03;;
33138;SDS011;19501;50.948;5.316;2024-03-02T08:08:58;7.13;;;1.63;;
33138;SDS011;19501;50.948;5.316;2024-03-02T08:11:25;7.50;;;2.00;;
33138;SDS011;19501;50.948;5.316;2024-03-02T08:13:52;11.05;;;1.83;;
33138;SDS011;19501;50.948;5.316;2024-03-02T08:16:20;10.15;;;2.10;;
33138;SDS011;19501;50.948;5.316;2024-03-02T08:18:50;8.23;;;2.00;;
33138;SDS011;19501;50.948;5.316;2024-03-02T08:21:17;8.75;;;1.67;;
33138;SDS011;19501;50.948;5.316;2024-03-02T08:23:44;5.45;;;2.05;;
33138;SDS011;19501;50.948;5.316;2024-03-02T08:26:12;7.93;;;2.20;;
33138;SDS011;19501;50.948;5.316;2024-03-02T08:28:38;13.38;;;2.65;;
33138;SDS011;19501;50.948;5.316;2024-03-02T08:31:07;6.53;;;2.72;;
33138;SDS011;19501;50.948;5.316;2024-03-02T08:33:33;5.65;;;1.70;;
33138;SDS011;19501;50.948;5.316;2024-03-02T08:35:58;6.50;;;1.58;;
33138;SDS011;19501;50.948;5.316;2024-03-02T08:38:24;8.32;;;1.67;;
33138;SDS011;19501;50.948;5.316;2024-03-02T08:40:50;6.70;;;1.55;;
33138;SDS011;19501;50.948;5.316;2024-03-02T08:43:16;8.43;;;1.65;;
33138;SDS011;19501;50.948;5.316;2024-03-02T08:45:44;6.45;;;1.80;;
33138;SDS011;19501;50.948;5.316;2024-03-02T08:48:10;7.55;;;1.98;;
33138;SDS011;19501;50.948;5.316;2024-03-02T08:50:36;10.20;;;1.73;;
33138;SDS011;19501;50.948;5.316;2024-03-02T08:53:04;7.05;;;1.85;;
33138;SDS011;19501;50.948;5.316;2024-03-02T08:55:30;9.73;;;1.77;;
33138;SDS011;19501;50.948;5.316;2024-03-02T08:57:55;4.93;;;1.52;;
33138;SDS011;19501;50.948;5.316;2024-03-02T09:00:21;3.97;;;1.90;;
33138;SDS011;19501;50.948;5.316;2024-03-02T09:02:47;5.30;;;1.58;;
33138;SDS011;19501;50.948;5.316;2024-03-02T09:05:13;6.03;;;1.75;;
33138;SDS011;19501;50.948;5.316;2024-03-02T09:07:42;8.60;;;1.65;;
33138;SDS011;19501;50.948;5.316;2024-03-02T09:10:08;5.40;;;1.60;;
33138;SDS011;19501;50.948;5.316;2024-03-02T09:12:34;9.40;;;1.80;;
33138;SDS011;19501;50.948;5.316;2024-03-02T09:15:00;9.52;;;1.75;;
33138;SDS011;19501;50.948;5.316;2024-03-02T09:17:27;7.57;;;1.67;;
33138;SDS011;19501;50.948;5.316;2024-03-02T09:19:53;9.88;;;2.33;;
33138;SDS011;19501;50.948;5.316;2024-03-02T09:22:19;9.60;;;2.40;;
33138;SDS011;19501;50.948;5.316;2024-03-02T09:24:45;10.88;;;2.00;;
33138;SDS011;19501;50.948;5.316;2024-03-02T09:27:13;6.43;;;1.83;;
33138;SDS011;19501;50.948;5.316;2024-03-02T09:29:38;11.75;;;2.35;;
33138;SDS011;19501;50.948;5.316;2024-03-02T09:32:05;7.30;;;2.10;;
33138;SDS011;19501;50.948;5.316;2024-03-02T09:34:31;3.53;;;2.13;;
33138;SDS011;19501;50.948;5.316;2024-03-02T09:36:57;8.23;;;2.10;;
33138;SDS011;19501;50.948;5.316;2024-03-02T09:39:22;6.05;;;1.92;;
33138;SDS011;19501;50.948;5.316;2024-03-02T09:41:50;10.25;;;3.15;;
33138;SDS011;19501;50.948;5.316;2024-03-02T09:44:16;8.70;;;1.63;;
33138;SDS011;19501;50.948;5.316;2024-03-02T09:46:42;4.35;;;1.70;;
33138;SDS011;19501;50.948;5.316;2024-03-02T09:49:09;11.15;;;1.63;;
33138;SDS011;19501;50.948;5.316;2024-03-02T09:51:36;4.55;;;1.77;;
33138;SDS011;19501;50.948;5.316;2024-03-02T09:54:02;8.63;;;2.33;;
33138;SDS011;19501;50.948;5.316;2024-03-02T09:56:28;8.43;;;2.15;;
33138;SDS011;19501;50.948;5.316;2024-03-02T09:58:54;6.35;;;1.50;;
33138;SDS011;19501;50.948;5.316;2024-03-02T10:01:20;11.50;;;1.90;;
33138;SDS011;19501;50.948;5.316;2024-03-02T10:03:45;9.05;;;2.08;;
33138;SDS011;19501;50.948;5.316;2024-03-02T10:06:27;12.90;;;3.83;;
33138;SDS011;19501;50.948;5.316;2024-03-02T10:08:54;10.93;;;2.92;;
33138;SDS011;19501;50.948;5.316;2024-03-02T10:16:37;7.13;;;1.92;;
33138;SDS011;19501;50.948;5.316;2024-03-02T10:21:46;6.05;;;2.17;;
33138;SDS011;19501;50.948;5.316;2024-03-02T10:24:17;13.35;;;2.33;;
33138;SDS011;19501;50.948;5.316;2024-03-02T10:26:44;8.65;;;1.80;;
33138;SDS011;19501;50.948;5.316;2024-03-02T10:29:10;7.80;;;1.75;;
33138;SDS011;19501;50.948;5.316;2024-03-02T10:31:43;10.95;;;1.90;;
33138;SDS011;19501;50.948;5.316;2024-03-02T10:34:09;7.60;;;2.00;;
33138;SDS011;19501;50.948;5.316;2024-03-02T10:36:36;7.63;;;1.83;;
33138;SDS011;19501;50.948;5.316;2024-03-02T10:39:06;7.82;;;1.67;;
33138;SDS011;19501;50.948;5.316;2024-03-02T10:41:33;7.35;;;1.98;;
33138;SDS011;19501;50.948;5.316;2024-03-02T10:44:01;6.72;;;1.88;;
33138;SDS011;19501;50.948;5.316;2024-03-02T10:46:31;5.78;;;1.40;;
33138;SDS011;19501;50.948;5.316;2024-03-02T10:49:02;12.40;;;2.13;;
33138;SDS011;19501;50.948;5.316;2024-03-02T10:51:32;6.35;;;1.88;;
33138;SDS011;19501;50.948;5.316;2024-03-02T10:53:58;7.20;;;1.60;;
33138;SDS011;19501;50.948;5.316;2024-03-02T10:59:01;6.15;;;1.80;;
33138;SDS011;19501;50.948;5.316;2024-03-02T11:01:31;5.97;;;1.63;;
33138;SDS011;19501;50.948;5.316;2024-03-02T11:03:58;9.50;;;1.80;;
33138;SDS011;19501;50.948;5.316;2024-03-02T11:06:27;11.38;;;2.10;;
33138;SDS011;19501;50.948;5.316;2024-03-02T11:08:53;6.90;;;2.00;;
33138;SDS011;19501;50.948;5.316;2024-03-02T11:11:27;10.68;;;1.88;;
33138;SDS011;19501;50.948;5.316;2024-03-02T11:13:57;6.60;;;1.60;;
33138;SDS011;19501;50.948;5.316;2024-03-02T11:16:34;10.00;;;2.03;;
33138;SDS011;19501;50.948;5.316;2024-03-02T11:19:05;9.95;;;2.20;;
33138;SDS011;19501;50.948;5.316;2024-03-02T11:21:35;2.30;;;1.27;;
33138;SDS011;19501;50.948;5.316;2024-03-02T11:26:49;8.30;;;2.05;;
33138;SDS011;19501;50.948;5.316;2024-03-02T11:32:03;8.52;;;2.05;;
33138;SDS011;19501;50.948;5.316;2024-03-02T11:36:57;7.82;;;1.98;;
33138;SDS011;19501;50.948;5.316;2024-03-02T11:39:24;10.88;;;2.28;;
33138;SDS011;19501;50.948;5.316;2024-03-02T11:41:51;7.55;;;2.17;;
33138;SDS011;19501;50.948;5.316;2024-03-02T11:44:20;8.40;;;1.85;;
33138;SDS011;19501;50.948;5.316;2024-03-02T11:46:46;7.20;;;1.70;;
33138;SDS011;19501;50.948;5.316;2024-03-02T11:52:04;11.50;;;2.40;;
33138;SDS011;19501;50.948;5.316;2024-03-02T11:54:32;7.88;;;2.00;;
33138;SDS011;19501;50.948;5.316;2024-03-02T11:57:01;9.20;;;2.92;;
33138;SDS011;19501;50.948;5.316;2024-03-02T11:59:31;9.52;;;2.80;;
33138;SDS011;19501;50.948;5.316;2024-03-02T12:01:57;9.68;;;2.72;;
33138;SDS011;19501;50.948;5.316;2024-03-02T12:04:24;7.47;;;2.05;;
33138;SDS011;19501;50.948;5.316;2024-03-02T12:06:59;8.20;;;2.65;;
33138;SDS011;19501;50.948;5.316;2024-03-02T12:09:29;10.43;;;2.60;;
33138;SDS011;19501;50.948;5.316;2024-03-02T12:12:04;6.80;;;2.17;;
33138;SDS011;19501;50.948;5.316;2024-03-02T12:14:31;7.30;;;1.98;;
33138;SDS011;19501;50.948;5.316;2024-03-02T12:17:01;6.05;;;2.05;;
33138;SDS011;19501;50.948;5.316;2024-03-02T12:19:27;5.22;;;1.90;;
33138;SDS011;19501;50.948;5.316;2024-03-02T12:21:54;6.63;;;2.67;;
33138;SDS011;19501;50.948;5.316;2024-03-02T12:24:32;8.18;;;2.70;;
33138;SDS011;19501;50.948;5.316;2024-03-02T12:26:58;7.97;;;1.90;;
33138;SDS011;19501;50.948;5.316;2024-03-02T12:29:24;6.82;;;2.30;;
33138;SDS011;19501;50.948;5.316;2024-03-02T12:31:50;7.35;;;1.80;;
33138;SDS011;19501;50.948;5.316;2024-03-02T12:34:17;13.82;;;2.00;;
33138;SDS011;19501;50.948;5.316;2024-03-02T12:36:44;13.52;;;2.88;;
33138;SDS011;19501;50.948;5.316;2024-03-02T12:39:17;10.43;;;2.00;;
33138;SDS011;19501;50.948;5.316;2024-03-02T12:41:44;7.05;;;1.75;;
33138;SDS011;19501;50.948;5.316;2024-03-02T12:44:19;7.25;;;2.00;;
33138;SDS011;19501;50.948;5.316;2024-03-02T12:46:45;3.38;;;1.65;;
33138;SDS011;19501;50.948;5.316;2024-03-02T12:49:14;7.38;;;1.95;;
33138;SDS011;19501;50.948;5.316;2024-03-02T12:51:45;5.78;;;1.80;;
33138;SDS011;19501;50.948;5.316;2024-03-02T12:54:16;7.63;;;1.90;;
33138;SDS011;19501;50.948;5.316;2024-03-02T12:56:42;7.82;;;2.00;;
33138;SDS011;19501;50.948;5.316;2024-03-02T12:59:18;3.78;;;1.73;;
33138;SDS011;19501;50.948;5.316;2024-03-02T13:01:51;7.03;;;1.92;;
33138;SDS011;19501;50.948;5.316;2024-03-02T13:04:24;3.88;;;1.83;;
33138;SDS011;19501;50.948;5.316;2024-03-02T13:06:51;3.53;;;1.38;;
33138;SDS011;19501;50.948;5.316;2024-03-02T13:09:17;12.90;;;2.13;;
33138;SDS011;19501;50.948;5.316;2024-03-02T13:11:43;4.43;;;1.73;;
33138;SDS011;19501;50.948;5.316;2024-03-02T13:14:12;7.05;;;1.90;;
33138;SDS011;19501;50.948;5.316;2024-03-02T13:16:41;5.07;;;2.05;;
33138;SDS011;19501;50.948;5.316;2024-03-02T13:19:08;3.55;;;1.73;;
33138;SDS011;19501;50.948;5.316;2024-03-02T13:21:34;7.95;;;2.05;;
33138;SDS011;19501;50.948;5.316;2024-03-02T13:24:00;5.68;;;1.73;;
33138;SDS011;19501;50.948;5.316;2024-03-02T13:26:26;8.10;;;2.33;;
33138;SDS011;19501;50.948;5.316;2024-03-02T13:28:52;4.93;;;1.58;;
33138;SDS011;19501;50.948;5.316;2024-03-02T13:31:18;8.38;;;1.95;;
33138;SDS011;19501;50.948;5.316;2024-03-02T13:33:44;5.63;;;2.20;;
33138;SDS011;19501;50.948;5.316;2024-03-02T13:36:12;3.05;;;1.67;;
33138;SDS011;19501;50.948;5.316;2024-03-02T13:38:38;6.80;;;1.98;;
33138;SDS011;19501;50.948;5.316;2024-03-02T13:41:03;7.43;;;2.10;;
33138;SDS011;19501;50.948;5.316;2024-03-02T13:43:32;4.45;;;1.70;;
33138;SDS011;19501;50.948;5.316;2024-03-02T13:45:58;5.13;;;1.77;;
33138;SDS011;19501;50.948;5.316;2024-03-02T13:48:24;5.88;;;2.00;;
33138;SDS011;19501;50.948;5.316;2024-03-02T13:50:52;7.97;;;1.83;;
33138;SDS011;19501;50.948;5.316;2024-03-02T13:53:18;4.38;;;1.67;;
33138;SDS011;19501;50.948;5.316;2024-03-02T13:55:45;4.45;;;1.83;;
33138;SDS011;19501;50.948;5.316;2024-03-02T13:58:10;5.60;;;1.77;;
33138;SDS011;19501;50.948;5.316;2024-03-02T14:00:36;2.90;;;1.55;;
33138;SDS011;19501;50.948;5.316;2024-03-02T14:03:04;3.35;;;1.63;;
33138;SDS011;19501;50.948;5.316;2024-03-02T14:05:33;6.82;;;2.00;;
33138;SDS011;19501;50.948;5.316;2024-03-02T14:07:59;3.97;;;1.77;;
33138;SDS011;19501;50.948;5.316;2024-03-02T14:10:25;6.88;;;1.92;;
33138;SDS011;19501;50.948;5.316;2024-03-02T14:12:52;5.63;;;1.75;;
33138;SDS011;19501;50.948;5.316;2024-03-02T14:15:18;4.05;;;1.83;;
33138;SDS011;19501;50.948;5.316;2024-03-02T14:17:45;5.70;;;1.85;;
33138;SDS011;19501;50.948;5.316;2024-03-02T14:20:11;2.78;;;1.70;;
33138;SDS011;19501;50.948;5.316;2024-03-02T14:22:38;5.93;;;1.70;;
33138;SDS011;19501;50.948;5.316;2024-03-02T14:25:04;3.70;;;2.00;;
33138;SDS011;19501;50.948;5.316;2024-03-02T14:27:30;5.80;;;2.20;;
33138;SDS011;19501;50.948;5.316;2024-03-02T14:29:56;4.75;;;1.98;;
33138;SDS011;19501;50.948;5.316;2024-03-02T14:32:22;7.63;;;1.88;;
33138;SDS011;19501;50.948;5.316;2024-03-02T14:34:47;3.17;;;1.70;;
33138;SDS011;19501;50.948;5.316;2024-03-02T14:37:14;6.55;;;2.15;;
33138;SDS011;19501;50.948;5.316;2024-03-02T14:39:40;5.60;;;1.90;;
33138;SDS011;19501;50.948;5.316;2024-03-02T14:42:06;5.43;;;1.80;;
33138;SDS011;19501;50.948;5.316;2024-03-02T14:44:32;7.55;;;2.03;;
33138;SDS011;19501;50.948;5.316;2024-03-02T14:46:59;5.22;;;1.98;;
33138;SDS011;19501;50.948;5.316;2024-03-02T14:51:58;4.53;;;1.80;;
33138;SDS011;19501;50.948;5.316;2024-03-02T14:54:24;3.45;;;1.63;;
33138;SDS011;19501;50.948;5.316;2024-03-02T14:56:50;6.18;;;2.22;;
33138;SDS011;19501;50.948;5.316;2024-03-02T14:59:16;6.57;;;2.20;;
33138;SDS011;19501;50.948;5.316;2024-03-02T15:01:42;6.03;;;1.88;;
33138;SDS011;19501;50.948;5.316;2024-03-02T15:04:09;3.72;;;2.08;;
33138;SDS011;19501;50.948;5.316;2024-03-02T15:06:35;6.50;;;2.42;;
33138;SDS011;19501;50.948;5.316;2024-03-02T15:09:00;3.20;;;1.70;;
33138;SDS011;19501;50.948;5.316;2024-03-02T15:11:26;5.30;;;1.92;;
33138;SDS011;19501;50.948;5.316;2024-03-02T15:13:52;3.90;;;2.08;;
33138;SDS011;19501;50.948;5.316;2024-03-02T15:16:18;5.63;;;1.90;;
33138;SDS011;19501;50.948;5.316;2024-03-02T15:18:44;5.07;;;1.77;;